Terminal Aerodrome Forecast
Issued by NWS Pocatello, ID

Home | Current Version | Previous Version | Text Only | Print | Product List | Glossary On
Versions: 1 2 3 4 5 6 7 8 9 10 11 12 13 14 15 16 17 18 19 20
000
FTUS45 KPIH 260500 AAA
TAFIDA
TAF AMD
KIDA 260547Z 2606/2706 36005KT 1/2SM FZFG VV002
     FM261600 02005KT 1SM BR SCT004 OVC008
     FM262000 01005KT P6SM SCT008 SCT140=

USA.gov is the U.S. government's official web portal to all federal, state and local government web resources and services.